Time;durP1;ratioP1;P1;durP2;ratioP2;P2;SDS_P1;SDS_P2;PMS_P1;PMS_P2;Temp;Humidity;BMP_temperature;BMP_pressure;BME280_temperature;BME280_humidity;BME280_pressure;Samples;Min_cycle;Max_cycle;Signal;HPM_P1;HPM_P2
2021/08/12 00:02:10;;;;;;;7.80;5.13;;;19.40;89.00;;;;;;5014328;28;20030;-91
2021/08/12 00:04:36;;;;;;;7.22;5.15;;;19.30;88.90;;;;;;5013807;28;20169;-90
2021/08/12 00:07:01;;;;;;;7.65;5.05;;;19.30;89.10;;;;;;5013332;28;20025;-91
2021/08/12 00:09:27;;;;;;;7.20;5.38;;;19.30;89.20;;;;;;4997653;28;20037;-90
2021/08/12 00:11:53;;;;;;;7.78;5.55;;;19.30;89.40;;;;;;5013057;28;20080;-91
2021/08/12 00:14:20;;;;;;;8.55;6.05;;;19.20;89.10;;;;;;4996946;28;20037;-90
2021/08/12 00:16:46;;;;;;;9.02;5.60;;;19.10;89.20;;;;;;5013657;28;20038;-90
2021/08/12 00:19:12;;;;;;;7.50;5.35;;;19.10;89.50;;;;;;5027951;28;20065;-91
2021/08/12 00:21:39;;;;;;;8.30;6.00;;;19.10;89.60;;;;;;5012449;28;20470;-91
2021/08/12 00:24:05;;;;;;;7.90;5.53;;;19.10;89.70;;;;;;4995608;28;20030;-92
2021/08/12 00:26:31;;;;;;;7.82;5.88;;;19.00;89.80;;;;;;5012161;28;20026;-91
2021/08/12 00:28:57;;;;;;;7.60;5.53;;;19.00;89.80;;;;;;5028909;28;20040;-90
2021/08/12 00:31:22;;;;;;;8.30;5.78;;;19.00;89.90;;;;;;5012094;28;20037;-91
2021/08/12 00:33:48;;;;;;;8.98;5.50;;;19.00;90.00;;;;;;5012173;28;20034;-90
2021/08/12 00:36:13;;;;;;;7.38;5.05;;;18.90;90.00;;;;;;4995028;28;20030;-90
2021/08/12 00:38:39;;;;;;;7.18;5.22;;;18.90;90.00;;;;;;5013033;28;20153;-94
2021/08/12 00:41:05;;;;;;;7.43;5.20;;;18.90;90.00;;;;;;5011710;28;20128;-92
2021/08/12 00:43:31;;;;;;;8.07;5.57;;;18.90;90.00;;;;;;5011507;28;20047;-92
2021/08/12 00:45:57;;;;;;;7.28;5.10;;;18.90;90.10;;;;;;4993322;28;20033;-91
2021/08/12 00:48:22;;;;;;;9.82;5.60;;;18.90;90.10;;;;;;4996817;28;20034;-91
2021/08/12 00:50:48;;;;;;;9.40;5.38;;;18.80;90.10;;;;;;5013014;28;20509;-92
2021/08/12 00:53:14;;;;;;;7.75;5.15;;;18.80;90.10;;;;;;4996725;28;20033;-90
2021/08/12 00:55:46;;;;;;;7.28;5.32;;;18.80;90.20;;;;;;5029496;28;20026;-89
2021/08/12 00:58:14;;;;;;;8.85;6.13;;;18.80;90.30;;;;;;5029142;28;20394;-90
2021/08/12 01:00:40;;;;;;;8.60;5.50;;;18.70;90.20;;;;;;5012469;28;20022;-91
2021/08/12 01:03:10;;;;;;;7.78;5.05;;;18.70;90.30;;;;;;5010530;28;20033;-91
2021/08/12 01:06:00;;;;;;;7.63;5.45;;;18.70;90.40;;;;;;5028309;28;20049;-91
2021/08/12 01:08:34;;;;;;;8.43;6.15;;;18.70;90.60;;;;;;5012027;28;20117;-90
2021/08/12 01:11:28;;;;;;;8.30;6.40;;;18.70;90.70;;;;;;5012217;28;20105;-90
2021/08/12 01:14:27;;;;;;;7.88;5.88;;;18.60;90.70;;;;;;4999720;28;20050;-90
2021/08/12 01:17:16;;;;;;;8.95;5.90;;;18.60;90.80;;;;;;5016949;28;20109;-90
2021/08/12 01:19:49;;;;;;;8.75;5.93;;;18.60;90.90;;;;;;5020639;28;20023;-90
2021/08/12 01:22:19;;;;;;;8.55;6.00;;;18.60;90.70;;;;;;5008245;28;20022;-90
2021/08/12 01:24:49;;;;;;;8.27;5.50;;;18.60;90.70;;;;;;5008815;28;20026;-91
2021/08/12 01:27:17;;;;;;;9.75;5.68;;;18.50;90.80;;;;;;5025831;28;20026;-90
2021/08/12 01:29:54;;;;;;;8.18;5.85;;;18.50;90.80;;;;;;5006930;28;20033;-90
2021/08/12 01:32:40;;;;;;;7.93;5.00;;;18.50;90.80;;;;;;5026651;28;20018;-90
2021/08/12 01:35:11;;;;;;;9.85;6.00;;;18.40;91.10;;;;;;5011343;28;20028;-91
2021/08/12 01:37:51;;;;;;;7.25;4.78;;;18.40;90.70;;;;;;5027572;28;20041;-90
2021/08/12 01:40:20;;;;;;;5.87;4.10;;;18.40;90.60;;;;;;5028787;28;20056;-90
2021/08/12 01:42:46;;;;;;;6.03;4.35;;;18.30;90.70;;;;;;5012045;28;20331;-89
2021/08/12 01:45:15;;;;;;;7.22;4.53;;;18.30;90.80;;;;;;5012245;28;20065;-89
2021/08/12 01:47:42;;;;;;;7.72;4.80;;;18.20;90.80;;;;;;5009508;28;20019;-91
2021/08/12 01:50:15;;;;;;;6.05;4.32;;;18.10;90.90;;;;;;4999104;28;20045;-91
2021/08/12 01:52:44;;;;;;;6.88;4.97;;;18.10;90.90;;;;;;4995314;28;20544;-90
2021/08/12 01:55:13;;;;;;;6.00;3.72;;;18.10;91.00;;;;;;5014760;28;20029;-90
2021/08/12 01:57:40;;;;;;;6.90;4.63;;;18.00;91.10;;;;;;5002241;28;20025;-90
2021/08/12 02:00:09;;;;;;;5.63;4.20;;;18.00;91.10;;;;;;5015459;28;20034;-90
2021/08/12 02:02:40;;;;;;;6.22;4.05;;;17.90;91.20;;;;;;5014620;28;20026;-91
2021/08/12 02:05:10;;;;;;;8.65;3.78;;;17.90;91.30;;;;;;5014978;28;20121;-90
2021/08/12 02:07:36;;;;;;;7.15;5.22;;;17.90;91.40;;;;;;5014901;28;20040;-90
2021/08/12 02:10:03;;;;;;;5.95;4.72;;;17.90;91.60;;;;;;5015181;28;20022;-90
2021/08/12 02:12:29;;;;;;;6.78;4.93;;;17.90;91.60;;;;;;5016356;28;20026;-91
2021/08/12 02:14:55;;;;;;;6.82;5.50;;;17.90;91.70;;;;;;5015319;28;20048;-91
2021/08/12 02:17:24;;;;;;;6.97;5.30;;;17.90;91.70;;;;;;5015383;28;20061;-91
2021/08/12 02:19:50;;;;;;;11.00;5.72;;;17.90;91.70;;;;;;5015297;28;20037;-91
2021/08/12 02:22:22;;;;;;;6.78;4.93;;;17.90;91.60;;;;;;5015633;28;20425;-91
2021/08/12 02:25:08;;;;;;;8.02;5.32;;;17.90;91.60;;;;;;5015891;28;20378;-91
2021/08/12 02:27:41;;;;;;;7.93;5.18;;;17.90;91.90;;;;;;5005953;28;20033;-90
2021/08/12 02:30:09;;;;;;;7.32;4.90;;;17.90;91.90;;;;;;5010228;28;20561;-90
2021/08/12 02:32:36;;;;;;;6.93;5.35;;;17.80;91.80;;;;;;5003226;28;20052;-90
2021/08/12 02:35:03;;;;;;;6.75;5.05;;;17.80;92.00;;;;;;5030876;28;20029;-89
2021/08/12 02:37:35;;;;;;;7.90;5.28;;;17.80;92.10;;;;;;5013858;28;20060;-90
2021/08/12 02:40:02;;;;;;;6.55;5.22;;;17.80;92.00;;;;;;5014865;28;20113;-90
2021/08/12 02:42:27;;;;;;;7.18;5.22;;;17.80;92.00;;;;;;5011449;28;20037;-89
2021/08/12 02:44:54;;;;;;;7.57;5.45;;;17.80;92.10;;;;;;5014872;28;20030;-91
2021/08/12 02:47:22;;;;;;;7.25;5.65;;;17.80;92.10;;;;;;4997080;28;20108;-90
2021/08/12 02:49:51;;;;;;;8.27;5.85;;;17.80;92.10;;;;;;5005064;28;20022;-90
2021/08/12 02:52:18;;;;;;;8.68;5.78;;;17.70;92.20;;;;;;5030858;28;20018;-89
2021/08/12 02:54:46;;;;;;;7.53;5.55;;;17.80;92.30;;;;;;5014552;28;20356;-90
2021/08/12 02:57:13;;;;;;;7.25;5.57;;;17.80;92.30;;;;;;5014114;28;20073;-90
2021/08/12 02:59:42;;;;;;;8.65;6.03;;;17.70;92.20;;;;;;5014787;28;20022;-94
2021/08/12 03:02:11;;;;;;;7.47;5.25;;;17.70;92.30;;;;;;5014555;28;20030;-91
2021/08/12 03:04:37;;;;;;;8.25;6.20;;;17.70;92.30;;;;;;4998327;28;20049;-90
2021/08/12 03:07:04;;;;;;;7.50;5.63;;;17.70;92.40;;;;;;4997211;28;20502;-90
2021/08/12 03:09:31;;;;;;;6.95;5.82;;;17.70;92.50;;;;;;5013940;28;20021;-89
2021/08/12 03:12:01;;;;;;;7.85;5.63;;;17.70;92.50;;;;;;5030889;28;20112;-90
2021/08/12 03:14:31;;;;;;;7.57;5.63;;;17.70;92.60;;;;;;4998475;28;20055;-90
2021/08/12 03:16:57;;;;;;;10.07;6.72;;;17.70;92.60;;;;;;5030650;28;20100;-90
2021/08/12 03:19:24;;;;;;;11.55;6.07;;;17.70;92.70;;;;;;4994466;28;20037;-90
2021/08/12 03:22:11;;;;;;;8.60;6.05;;;17.70;92.70;;;;;;5011986;28;20073;-90
2021/08/12 03:24:46;;;;;;;7.72;5.65;;;17.60;92.70;;;;;;5031883;28;20022;-91
2021/08/12 03:27:13;;;;;;;8.18;6.57;;;17.70;92.80;;;;;;5021901;28;20215;-90
2021/08/12 03:29:44;;;;;;;9.93;6.70;;;17.60;92.70;;;;;;5020850;28;20049;-90
2021/08/12 03:32:13;;;;;;;8.73;5.90;;;17.60;92.70;;;;;;5017335;28;20112;-90
2021/08/12 03:34:39;;;;;;;9.50;6.68;;;17.60;92.80;;;;;;5030324;28;20030;-92
2021/08/12 03:37:05;;;;;;;9.25;6.85;;;17.60;92.80;;;;;;5013239;28;20030;-91
2021/08/12 03:39:31;;;;;;;8.50;6.32;;;17.60;92.80;;;;;;5014929;28;20042;-92
2021/08/12 03:41:58;;;;;;;8.80;6.50;;;17.60;92.90;;;;;;5022650;28;20068;-91
2021/08/12 03:44:24;;;;;;;7.93;6.00;;;17.50;92.90;;;;;;4997698;28;20038;-90
2021/08/12 03:46:50;;;;;;;8.82;6.43;;;17.50;92.90;;;;;;5017240;28;20018;-91
2021/08/12 03:49:16;;;;;;;6.80;5.07;;;17.50;92.90;;;;;;5018368;28;20133;-91
2021/08/12 03:51:42;;;;;;;8.07;5.72;;;17.50;92.90;;;;;;5017802;28;20026;-91
2021/08/12 03:54:08;;;;;;;7.00;5.30;;;17.40;92.80;;;;;;5037911;28;20021;-90
2021/08/12 03:56:34;;;;;;;8.20;5.47;;;17.40;92.90;;;;;;5023826;28;20090;-91
2021/08/12 03:58:59;;;;;;;8.18;5.43;;;17.40;92.90;;;;;;5020620;28;20049;-91
2021/08/12 04:01:25;;;;;;;7.07;5.20;;;17.40;92.90;;;;;;5025292;28;20060;-91
2021/08/12 04:03:50;;;;;;;6.65;4.70;;;17.40;92.90;;;;;;5009172;28;20061;-88
2021/08/12 04:06:17;;;;;;;5.22;3.70;;;17.40;92.90;;;;;;5027138;28;20056;-90
2021/08/12 04:08:43;;;;;;;4.65;3.35;;;17.30;92.90;;;;;;5013324;28;20109;-90
2021/08/12 04:11:09;;;;;;;4.80;3.63;;;17.30;92.90;;;;;;5016184;28;20037;-91
2021/08/12 04:13:34;;;;;;;5.40;3.83;;;17.20;92.90;;;;;;5011122;28;20441;-91
2021/08/12 04:16:01;;;;;;;5.85;4.45;;;17.20;93.20;;;;;;5008768;28;20048;-91
2021/08/12 04:18:30;;;;;;;6.38;4.68;;;17.20;93.10;;;;;;5017287;28;20073;-91
2021/08/12 04:20:55;;;;;;;6.82;4.72;;;17.20;93.20;;;;;;4997013;28;20037;-92
2021/08/12 04:23:21;;;;;;;5.93;4.40;;;17.20;93.20;;;;;;4996728;28;20121;-90
2021/08/12 04:25:47;;;;;;;7.40;4.90;;;17.20;93.10;;;;;;4996556;28;20030;-90
2021/08/12 04:28:12;;;;;;;9.48;5.35;;;17.10;93.20;;;;;;4999944;28;20042;-90
2021/08/12 04:30:39;;;;;;;8.18;5.95;;;17.10;93.30;;;;;;5009756;28;20030;-90
2021/08/12 04:33:05;;;;;;;6.90;5.65;;;17.10;93.30;;;;;;4993438;28;20049;-90
2021/08/12 04:35:30;;;;;;;7.45;4.82;;;17.10;93.30;;;;;;4993773;28;20065;-90
2021/08/12 04:37:56;;;;;;;7.32;5.32;;;17.10;93.40;;;;;;4994745;28;20061;-90
2021/08/12 04:40:22;;;;;;;8.10;5.90;;;17.10;93.40;;;;;;5023926;28;20038;-91
2021/08/12 04:42:49;;;;;;;8.63;6.20;;;17.10;93.40;;;;;;5012834;28;20037;-90
2021/08/12 04:45:20;;;;;;;7.50;5.45;;;17.00;93.40;;;;;;4995605;28;20033;-91
2021/08/12 04:47:45;;;;;;;7.75;5.22;;;17.00;93.50;;;;;;4999844;28;20022;-91
2021/08/12 04:50:12;;;;;;;8.15;6.20;;;17.00;93.50;;;;;;5012723;28;20105;-90
2021/08/12 04:52:41;;;;;;;6.15;4.68;;;17.00;93.50;;;;;;5011544;28;20026;-90
2021/08/12 04:55:09;;;;;;;6.43;4.88;;;17.00;93.50;;;;;;5012089;28;20049;-90
2021/08/12 04:57:34;;;;;;;5.50;4.30;;;17.00;93.50;;;;;;5028611;28;20022;-90
2021/08/12 05:00:00;;;;;;;5.07;3.75;;;17.00;93.50;;;;;;5029284;28;20087;-89
2021/08/12 05:02:35;;;;;;;5.57;4.00;;;16.90;93.40;;;;;;5012442;28;20377;-90
2021/08/12 05:05:01;;;;;;;6.38;4.00;;;16.90;93.50;;;;;;5012577;28;20025;-90
2021/08/12 05:07:27;;;;;;;6.03;4.22;;;16.90;93.60;;;;;;4996119;28;20026;-89
2021/08/12 05:09:53;;;;;;;6.05;4.53;;;16.90;93.60;;;;;;4996235;28;20091;-91
2021/08/12 05:12:19;;;;;;;6.53;5.10;;;16.90;93.60;;;;;;4996390;28;20113;-91
2021/08/12 05:14:46;;;;;;;7.57;5.53;;;16.90;93.70;;;;;;5028709;28;20031;-90
2021/08/12 05:17:15;;;;;;;7.25;5.35;;;16.90;93.80;;;;;;4996410;28;20022;-91
2021/08/12 05:19:44;;;;;;;6.90;5.40;;;16.90;93.90;;;;;;4998817;28;20033;-90
2021/08/12 05:22:13;;;;;;;8.18;5.25;;;16.80;93.90;;;;;;4992782;28;20042;-91
2021/08/12 05:24:44;;;;;;;7.38;5.10;;;16.80;93.90;;;;;;4992497;28;20056;-91
2021/08/12 05:27:13;;;;;;;8.23;5.43;;;16.80;94.00;;;;;;5015138;28;20045;-91
2021/08/12 05:29:38;;;;;;;7.78;5.43;;;16.80;94.10;;;;;;4986506;28;20023;-91
2021/08/12 05:32:05;;;;;;;7.57;6.03;;;16.90;94.10;;;;;;5001608;28;20026;-90
2021/08/12 05:34:30;;;;;;;7.85;5.90;;;16.90;94.10;;;;;;5031781;28;20445;-89
2021/08/12 05:36:56;;;;;;;7.95;6.40;;;16.90;94.20;;;;;;5002656;28;20023;-91
2021/08/12 05:39:22;;;;;;;9.07;6.10;;;16.90;94.20;;;;;;5034039;28;20042;-90
2021/08/12 05:41:50;;;;;;;9.40;6.32;;;16.90;94.30;;;;;;5000760;28;20044;-91
2021/08/12 05:44:18;;;;;;;7.47;5.68;;;16.90;94.40;;;;;;5018543;28;20026;-91
2021/08/12 05:46:44;;;;;;;8.07;6.50;;;17.00;94.50;;;;;;5001326;28;20033;-90
2021/08/12 05:49:11;;;;;;;7.75;6.20;;;17.00;94.50;;;;;;4981202;28;20030;-91
2021/08/12 05:51:37;;;;;;;9.70;6.68;;;17.00;94.60;;;;;;5012557;28;20382;-91
2021/08/12 05:54:04;;;;;;;10.40;6.85;;;17.10;94.60;;;;;;5013024;28;20050;-90
2021/08/12 05:56:35;;;;;;;8.48;6.97;;;17.10;94.70;;;;;;5011484;28;20027;-91
2021/08/12 05:59:01;;;;;;;9.55;7.22;;;17.20;94.70;;;;;;4998931;28;20029;-92
2021/08/12 06:01:27;;;;;;;9.35;7.07;;;17.20;94.70;;;;;;4994919;28;20105;-92
2021/08/12 06:03:53;;;;;;;10.02;7.82;;;17.20;94.70;;;;;;5004622;28;20457;-91
2021/08/12 06:06:21;;;;;;;8.05;7.10;;;17.30;94.70;;;;;;4994983;28;20026;-91
2021/08/12 06:08:46;;;;;;;9.20;7.57;;;17.30;94.70;;;;;;5021097;28;20041;-91
2021/08/12 06:11:12;;;;;;;10.70;8.30;;;17.30;94.70;;;;;;4994016;28;20411;-91
2021/08/12 06:13:38;;;;;;;12.77;9.07;;;17.40;94.80;;;;;;4993107;28;20026;-92
2021/08/12 06:16:07;;;;;;;10.98;8.70;;;17.40;94.80;;;;;;4980903;28;20026;-91
2021/08/12 06:18:33;;;;;;;12.75;9.40;;;17.40;94.70;;;;;;5011487;28;20026;-91
2021/08/12 06:20:59;;;;;;;10.00;8.20;;;17.40;94.70;;;;;;4996615;28;20538;-91
2021/08/12 06:23:25;;;;;;;10.88;8.80;;;17.50;94.70;;;;;;5004581;28;20049;-91
2021/08/12 06:25:58;;;;;;;11.63;9.00;;;17.50;94.70;;;;;;5004938;28;20069;-91
2021/08/12 06:28:24;;;;;;;12.55;9.32;;;17.50;94.70;;;;;;4996927;28;20109;-91
2021/08/12 06:30:53;;;;;;;10.68;8.82;;;17.60;94.70;;;;;;4996278;28;20064;-90
2021/08/12 06:33:19;;;;;;;12.88;9.48;;;17.60;94.70;;;;;;5015078;28;20101;-91
2021/08/12 06:35:47;;;;;;;12.88;9.48;;;17.60;94.70;;;;;;5011251;28;20148;-88
2021/08/12 06:38:13;;;;;;;11.48;8.82;;;17.70;94.70;;;;;;4996165;28;20113;-92
2021/08/12 06:40:38;;;;;;;12.00;9.80;;;17.70;94.70;;;;;;5014056;28;20042;-93
2021/08/12 06:43:04;;;;;;;10.13;8.68;;;17.80;94.70;;;;;;5031885;28;20022;-93
2021/08/12 06:45:37;;;;;;;10.75;9.02;;;17.80;94.80;;;;;;5014507;28;20034;-92
2021/08/12 06:48:04;;;;;;;10.75;8.80;;;17.90;94.80;;;;;;5030586;28;20099;-93
2021/08/12 06:50:30;;;;;;;11.95;9.02;;;17.90;94.80;;;;;;5013999;28;20121;-92
2021/08/12 06:52:56;;;;;;;10.77;8.98;;;18.00;94.90;;;;;;5014653;28;20045;-93
2021/08/12 06:55:21;;;;;;;11.98;9.95;;;18.00;94.80;;;;;;5014816;28;20022;-92
2021/08/12 06:57:47;;;;;;;10.82;8.98;;;18.10;94.90;;;;;;5030581;28;20018;-92
2021/08/12 07:00:14;;;;;;;11.85;10.02;;;18.10;95.00;;;;;;5014210;28;20537;-94
2021/08/12 07:02:40;;;;;;;11.32;8.95;;;18.20;94.90;;;;;;5014297;28;20033;-92
2021/08/12 07:05:06;;;;;;;13.10;10.10;;;18.30;95.00;;;;;;5010491;28;20501;-92
2021/08/12 07:07:32;;;;;;;12.05;9.77;;;18.30;95.30;;;;;;5013949;28;20033;-90
2021/08/12 07:09:58;;;;;;;10.77;9.23;;;18.40;95.00;;;;;;4997955;28;20030;-90
2021/08/12 07:12:23;;;;;;;12.82;9.30;;;18.40;94.90;;;;;;5007470;28;20022;-90
2021/08/12 07:14:49;;;;;;;11.18;9.32;;;18.50;94.90;;;;;;4992959;28;20026;-89
2021/08/12 07:17:15;;;;;;;12.05;9.43;;;18.60;94.90;;;;;;5006877;28;20758;-90
2021/08/12 07:19:41;;;;;;;11.68;9.07;;;18.60;94.90;;;;;;4995438;28;20030;-90
2021/08/12 07:22:06;;;;;;;13.13;8.93;;;18.70;94.90;;;;;;4994303;28;20042;-90
2021/08/12 07:24:32;;;;;;;13.07;9.98;;;18.70;94.80;;;;;;4997386;28;20026;-92
2021/08/12 07:26:58;;;;;;;11.77;8.68;;;18.90;94.80;;;;;;4997667;28;20065;-92
2021/08/12 07:29:24;;;;;;;13.77;10.82;;;18.90;94.80;;;;;;5020925;28;20033;-92
2021/08/12 07:31:50;;;;;;;11.68;8.13;;;19.00;94.70;;;;;;5013542;28;20060;-93
2021/08/12 07:34:16;;;;;;;10.07;8.15;;;19.10;94.60;;;;;;5014972;28;20018;-93
2021/08/12 07:36:42;;;;;;;12.10;8.20;;;19.10;94.60;;;;;;5026791;28;20018;-93
2021/08/12 07:39:08;;;;;;;9.65;7.28;;;19.20;94.60;;;;;;5011914;28;20128;-92
2021/08/12 07:41:34;;;;;;;11.63;8.07;;;19.30;94.50;;;;;;5014500;28;20053;-91
2021/08/12 07:44:03;;;;;;;8.45;6.97;;;19.40;94.40;;;;;;5007498;28;20942;-92
2021/08/12 07:46:29;;;;;;;8.88;6.70;;;19.40;94.10;;;;;;5025186;28;20121;-92
2021/08/12 07:48:55;;;;;;;7.68;5.95;;;19.60;93.90;;;;;;4988585;28;20035;-91
2021/08/12 07:51:27;;;;;;;9.07;6.65;;;19.60;93.60;;;;;;5016917;28;20038;-93
2021/08/12 07:53:54;;;;;;;8.73;6.13;;;19.70;93.50;;;;;;5013128;28;20065;-92
2021/08/12 07:56:34;;;;;;;9.32;6.60;;;19.80;93.20;;;;;;5013650;28;20034;-90
2021/08/12 07:58:59;;;;;;;8.68;6.22;;;19.90;93.00;;;;;;5013462;28;20034;-91
2021/08/12 08:01:25;;;;;;;8.38;6.40;;;20.00;92.90;;;;;;5013623;28;20445;-90
2021/08/12 08:03:53;;;;;;;8.63;5.95;;;20.10;92.80;;;;;;5014406;28;20089;-91
2021/08/12 08:06:21;;;;;;;10.57;5.68;;;20.20;92.70;;;;;;5022489;28;20037;-92
2021/08/12 08:08:47;;;;;;;10.07;7.35;;;20.30;92.70;;;;;;5018062;28;20390;-91
2021/08/12 08:11:15;;;;;;;10.52;7.22;;;20.40;92.60;;;;;;5015164;28;20033;-90
2021/08/12 08:13:41;;;;;;;9.88;6.90;;;20.40;92.40;;;;;;4999079;28;20105;-87
2021/08/12 08:16:07;;;;;;;7.20;5.80;;;20.50;92.10;;;;;;5012005;28;20125;-87
2021/08/12 08:18:32;;;;;;;6.63;5.15;;;20.60;92.10;;;;;;4995671;28;20654;-87
2021/08/12 08:20:58;;;;;;;7.68;5.35;;;20.70;92.10;;;;;;5012126;28;20034;-87
2021/08/12 08:23:24;;;;;;;7.25;5.07;;;20.80;92.10;;;;;;4995057;28;20027;-87
2021/08/12 08:25:50;;;;;;;6.80;4.82;;;21.00;92.10;;;;;;5018614;28;20084;-86
2021/08/12 08:28:15;;;;;;;7.68;5.30;;;21.10;92.10;;;;;;5006749;28;20032;-86
2021/08/12 08:30:41;;;;;;;8.00;5.35;;;21.10;92.00;;;;;;5028030;28;20525;-86
2021/08/12 08:33:08;;;;;;;7.45;5.00;;;21.20;91.70;;;;;;4994682;28;20445;-85
2021/08/12 08:35:35;;;;;;;5.43;4.43;;;21.30;91.20;;;;;;4992086;28;20027;-86
2021/08/12 08:38:00;;;;;;;7.28;5.10;;;21.40;91.00;;;;;;4995168;28;20022;-86
2021/08/12 08:40:27;;;;;;;6.95;4.97;;;21.50;90.90;;;;;;5011554;28;20050;-87
2021/08/12 08:42:53;;;;;;;6.75;4.47;;;21.60;90.80;;;;;;5012842;28;20033;-87
2021/08/12 08:45:27;;;;;;;7.53;5.57;;;21.70;90.80;;;;;;5011017;28;20026;-86
2021/08/12 08:47:54;;;;;;;7.63;5.18;;;21.80;90.40;;;;;;5011802;28;20022;-87
2021/08/12 08:50:38;;;;;;;7.53;4.70;;;21.90;90.10;;;;;;4991678;28;20125;-87
2021/08/12 08:53:04;;;;;;;7.55;5.10;;;21.90;90.10;;;;;;5010838;28;20030;-87
2021/08/12 08:55:30;;;;;;;8.00;4.97;;;22.10;89.90;;;;;;4995150;28;20125;-86
2021/08/12 08:57:57;;;;;;;7.82;5.38;;;22.10;89.40;;;;;;5011176;28;20116;-86
2021/08/12 09:00:24;;;;;;;8.30;4.60;;;22.20;88.20;;;;;;5010163;28;20030;-87
2021/08/12 09:02:51;;;;;;;6.32;5.20;;;22.20;88.60;;;;;;4992429;28;20037;-87
2021/08/12 09:05:21;;;;;;;7.28;5.43;;;22.30;87.80;;;;;;5009980;28;20545;-85
2021/08/12 09:07:50;;;;;;;7.57;5.10;;;22.40;87.10;;;;;;5011156;28;20423;-86
2021/08/12 09:10:18;;;;;;;6.35;4.63;;;22.50;86.50;;;;;;5002146;28;20014;-87
2021/08/12 09:12:48;;;;;;;5.72;4.68;;;22.60;86.90;;;;;;5011306;28;20101;-86
2021/08/12 09:15:20;;;;;;;6.60;5.03;;;22.70;86.60;;;;;;4997813;28;20084;-86
2021/08/12 09:17:47;;;;;;;8.52;5.40;;;22.80;85.80;;;;;;5015728;28;20433;-87
2021/08/12 09:20:25;;;;;;;8.07;5.28;;;22.80;85.10;;;;;;5009832;28;20034;-87
2021/08/12 09:22:51;;;;;;;7.90;4.65;;;22.90;84.90;;;;;;5027965;28;20319;-87
2021/08/12 09:25:34;;;;;;;7.15;4.22;;;23.00;83.80;;;;;;5007006;28;20023;-86
2021/08/12 09:28:17;;;;;;;7.68;4.97;;;23.00;84.00;;;;;;4991569;28;20601;-87
2021/08/12 09:30:58;;;;;;;6.85;4.05;;;23.10;81.90;;;;;;4999834;28;20490;-86
2021/08/12 09:33:25;;;;;;;6.53;4.65;;;23.20;81.50;;;;;;5012391;28;20437;-87
2021/08/12 09:36:02;;;;;;;6.63;4.80;;;23.20;81.50;;;;;;5010022;28;20026;-86
2021/08/12 09:38:28;;;;;;;7.22;4.20;;;23.30;80.80;;;;;;5011652;28;20053;-86
2021/08/12 09:40:56;;;;;;;8.05;4.90;;;23.40;81.60;;;;;;4991589;28;20088;-87
2021/08/12 09:43:24;;;;;;;9.43;4.80;;;23.40;81.40;;;;;;5005617;28;20030;-87
2021/08/12 09:45:50;;;;;;;7.38;4.43;;;23.50;81.10;;;;;;4989060;28;20467;-86
2021/08/12 09:48:20;;;;;;;6.65;4.38;;;23.50;80.70;;;;;;5011095;28;20018;-88
2021/08/12 09:50:58;;;;;;;6.45;3.95;;;23.60;80.00;;;;;;4993424;28;20181;-87
2021/08/12 09:53:24;;;;;;;6.32;3.85;;;23.70;79.60;;;;;;5008863;28;20018;-86
2021/08/12 09:55:51;;;;;;;8.02;4.50;;;23.70;79.50;;;;;;5005657;28;20084;-86
2021/08/12 09:58:18;;;;;;;7.13;4.30;;;23.70;78.50;;;;;;4993945;28;20026;-86
2021/08/12 10:00:48;;;;;;;7.80;4.03;;;23.80;78.80;;;;;;5012166;28;20026;-87
2021/08/12 10:03:30;;;;;;;6.28;4.00;;;23.90;78.60;;;;;;4995984;28;20026;-87
2021/08/12 10:06:03;;;;;;;5.22;4.00;;;23.90;78.70;;;;;;5028356;28;20041;-88
2021/08/12 10:08:35;;;;;;;6.90;4.13;;;24.00;78.40;;;;;;5011462;28;20022;-88
2021/08/12 10:11:25;;;;;;;5.22;3.47;;;24.10;78.40;;;;;;5010464;28;20030;-88
2021/08/12 10:14:11;;;;;;;5.47;3.72;;;24.20;78.00;;;;;;5021763;28;20117;-87
2021/08/12 10:16:38;;;;;;;6.07;3.50;;;24.20;78.00;;;;;;4991425;28;20045;-80
2021/08/12 10:19:09;;;;;;;8.30;4.88;;;24.30;78.20;;;;;;5013770;28;20044;-81
2021/08/12 10:21:39;;;;;;;5.70;3.80;;;24.30;77.70;;;;;;5015078;28;20038;-83
2021/08/12 10:24:06;;;;;;;5.57;4.13;;;24.40;77.40;;;;;;4994251;28;20030;-85
2021/08/12 10:26:33;;;;;;;6.10;4.10;;;24.50;77.50;;;;;;5009500;28;20030;-84
2021/08/12 10:29:09;;;;;;;6.22;4.40;;;24.60;77.40;;;;;;5015683;28;20033;-92
2021/08/12 10:31:42;;;;;;;6.32;4.00;;;24.60;76.90;;;;;;5014538;28;20100;-92
2021/08/12 10:34:10;;;;;;;4.80;3.80;;;24.70;77.20;;;;;;5012808;28;20030;-92
2021/08/12 10:36:36;;;;;;;5.30;4.00;;;24.80;77.20;;;;;;5014108;28;20022;-92
2021/08/12 10:39:02;;;;;;;7.88;4.82;;;24.80;76.30;;;;;;5005543;28;20057;-87
2021/08/12 10:41:28;;;;;;;5.70;3.55;;;24.80;76.10;;;;;;5013079;28;20394;-87
2021/08/12 10:43:57;;;;;;;7.47;4.18;;;24.90;76.20;;;;;;5016322;28;20067;-86
2021/08/12 10:46:50;;;;;;;7.85;4.82;;;25.00;76.80;;;;;;5027910;28;20071;-87
2021/08/12 10:49:33;;;;;;;5.93;4.75;;;25.00;73.70;;;;;;5014059;28;20048;-89
2021/08/12 10:52:05;;;;;;;5.70;4.40;;;25.10;75.20;;;;;;5015525;28;20022;-91
2021/08/12 10:54:35;;;;;;;6.80;4.50;;;25.20;75.40;;;;;;5014002;28;20034;-92
2021/08/12 10:57:13;;;;;;;6.63;3.92;;;25.20;75.10;;;;;;4994580;28;20049;-92
2021/08/12 10:59:42;;;;;;;5.30;3.50;;;25.30;75.60;;;;;;5009494;28;20037;-92
2021/08/12 11:02:31;;;;;;;5.38;3.55;;;25.30;76.50;;;;;;5014094;28;20474;-92
2021/08/12 11:05:00;;;;;;;5.67;3.57;;;25.40;76.60;;;;;;5014015;28;20022;-92
2021/08/12 11:07:50;;;;;;;5.60;4.15;;;25.40;76.40;;;;;;5013644;28;20021;-91
2021/08/12 11:10:19;;;;;;;;;;;25.50;75.50;;;;;;4997469;28;20061;-91
2021/08/12 11:12:56;;;;;;;4.88;3.45;;;25.50;75.20;;;;;;5013509;28;19905;-93
2021/08/12 11:15:49;;;;;;;6.07;3.88;;;25.50;75.40;;;;;;5014789;28;20104;-91
2021/08/12 11:18:16;;;;;;;4.72;3.47;;;25.60;74.80;;;;;;5013827;28;20464;-91
2021/08/12 11:20:44;;;;;;;6.13;4.20;;;25.60;74.50;;;;;;5014582;28;20053;-92
2021/08/12 11:23:22;;;;;;;5.20;3.75;;;25.70;74.90;;;;;;5013287;28;20025;-91
2021/08/12 11:25:58;;;;;;;4.95;3.55;;;25.80;74.20;;;;;;5015743;28;20030;-92
2021/08/12 11:28:54;;;;;;;6.28;4.50;;;25.80;74.10;;;;;;5014029;28;20076;-92
2021/08/12 11:31:20;;;;;;;6.22;4.20;;;25.90;74.10;;;;;;4959589;28;20146;-91
2021/08/12 11:33:59;;;;;;;5.72;3.65;;;26.00;73.70;;;;;;5008397;28;20522;-90
2021/08/12 11:36:28;;;;;;;5.15;3.60;;;26.00;73.20;;;;;;5013268;28;20478;-92
2021/08/12 11:39:08;;;;;;;6.65;3.60;;;26.10;73.50;;;;;;5014177;28;20107;-92
2021/08/12 11:41:38;;;;;;;6.00;3.78;;;26.20;73.80;;;;;;5004510;28;20482;-88
2021/08/12 11:44:09;;;;;;;5.70;3.88;;;26.30;74.30;;;;;;5019728;28;20031;-87
2021/08/12 11:46:39;;;;;;;5.07;3.45;;;26.30;74.00;;;;;;5012920;28;20037;-87
2021/08/12 11:49:11;;;;;;;5.50;3.58;;;26.40;73.60;;;;;;5012812;28;20026;-85
2021/08/12 11:51:37;;;;;;;5.30;3.75;;;26.50;73.30;;;;;;5011628;28;20080;-86
2021/08/12 11:54:03;;;;;;;5.78;3.55;;;26.50;73.50;;;;;;5012990;28;20744;-87
2021/08/12 11:56:33;;;;;;;5.07;3.35;;;26.50;73.50;;;;;;5008541;28;20418;-86
2021/08/12 11:59:01;;;;;;;6.45;4.30;;;26.60;72.70;;;;;;5012228;28;20036;-86
2021/08/12 12:01:32;;;;;;;5.65;4.05;;;26.60;72.80;;;;;;5012844;28;20405;-87
2021/08/12 12:04:01;;;;;;;6.75;4.10;;;26.70;72.90;;;;;;5012102;28;20022;-87
2021/08/12 12:06:47;;;;;;;7.80;4.22;;;26.70;73.00;;;;;;5011773;28;20080;-87
2021/08/12 12:09:32;;;;;;;5.38;3.70;;;26.70;71.90;;;;;;4995977;28;20062;-87
2021/08/12 12:12:04;;;;;;;5.78;3.90;;;26.70;72.70;;;;;;4979016;28;20494;-87
2021/08/12 12:14:32;;;;;;;6.55;4.38;;;26.70;73.10;;;;;;5004885;28;20036;-86
2021/08/12 12:17:12;;;;;;;5.18;3.50;;;26.70;72.50;;;;;;5028532;28;20033;-86
2021/08/12 12:20:05;;;;;;;6.80;4.50;;;26.80;72.10;;;;;;5013217;28;20030;-86
2021/08/12 12:22:32;;;;;;;6.25;4.20;;;26.80;71.20;;;;;;5000466;28;20085;-86
2021/08/12 12:25:02;;;;;;;6.07;3.88;;;26.80;71.70;;;;;;4995553;28;20497;-86
2021/08/12 12:27:29;;;;;;;4.90;3.72;;;26.80;72.20;;;;;;5011465;28;20025;-86
2021/08/12 12:30:05;;;;;;;5.82;3.78;;;26.90;72.60;;;;;;5012303;28;20033;-87
2021/08/12 12:32:31;;;;;;;7.57;3.70;;;27.00;73.20;;;;;;4999155;28;20026;-88
2021/08/12 12:34:57;;;;;;;5.25;3.65;;;27.10;73.70;;;;;;4991991;28;20472;-88
2021/08/12 12:37:25;;;;;;;5.85;4.00;;;27.10;73.80;;;;;;5011941;28;20529;-87
2021/08/12 12:39:51;;;;;;;6.75;3.92;;;27.20;73.70;;;;;;5012260;28;20060;-87
2021/08/12 12:42:17;;;;;;;5.38;3.70;;;27.30;73.20;;;;;;5011212;28;20399;-87
2021/08/12 12:45:06;;;;;;;6.78;4.00;;;27.40;72.90;;;;;;5010983;28;20030;-88
2021/08/12 12:47:33;;;;;;;6.30;3.83;;;27.50;73.70;;;;;;5012035;28;20030;-87
2021/08/12 12:50:19;;;;;;;6.40;4.28;;;27.60;72.90;;;;;;5011566;28;20022;-87
2021/08/12 12:52:55;;;;;;;5.05;3.50;;;27.60;72.80;;;;;;5009224;28;20029;-87
2021/08/12 12:55:24;;;;;;;6.28;4.10;;;27.70;71.40;;;;;;5001942;28;20101;-87
2021/08/12 12:57:50;;;;;;;6.22;4.15;;;27.70;71.30;;;;;;5011466;28;20026;-87